Hauptseite
METAR-TAF:

METAR-TAF

Flughäfen :

Lahaina, Hawaii, Vereinigte Staaten

Breite: 21-01N, Länge: 156-38W, Höhe: 40 m

METAR: fehlend

Zeit: 07:07 (17:07 UTC)

Prognose

Neuester Wetterbericht von vor 17 Stunden und 37 Minuten, um 23:30 UTC
Gültige Prognose vom 16 um 00 UTC bis 16 um 24 UTC
Wind 8 kt aus Süd
Sichtweite: 10 km
Durchbrochene Bewölkung in der Höhe von 2500 ft
Durchbrochene Bewölkung in der Höhe von 3500 ft
Ab 16 um 0400 UTC
Wind 8 kt aus Süd
Sichtweite: 10 km
Aufgelockert bewölkt in der Höhe von 2500 ft
Aufgelockert bewölkt in der Höhe von 4500 ft
Ab 16 um 1800 UTC
Wind 7 kt aus Nordwest
Sichtweite: 10 km
Aufgelockert bewölkt in der Höhe von 2500 ft
Aufgelockert bewölkt in der Höhe von 4500 ft

TAF: PHJH 152330Z 1600/1624 19008KT P6SM BKN025 BKN035 FM160400 19008KT P6SM SCT025 SCT045 FM161800 32007KT P6SM SCT025 SCT045 AMD NOT SKED

Wetterbeobachtungen und Prognosen von mehr als 4000 Flughäfen (METAR und TAF Bericht).

Die verfügbaren Stationen werden durch gelbe und rote Markierungen auf der Karte dargestellt.

Führen Sie die Maus auf sie, um den Namen der Station zu sehen.

Darauf klicken, um die Beobachtung von Wetterbeobachtungen und Prognosen zu sehen.

Um die Karte zu ändern : klicken Sie auf den grünen Tasten mit einem schwarzen Kreuz Zum Vergrößern, auf den grünen Button mit einem Gedankenstrich zu verkleinern, oder auf die grünen Pfeile für benachbarte Karten.


METAR-TAF: